sensor_id;sensor_type;location;lat;lon;timestamp;temperature;humidity
44851;DHT22;30583;48.714;9.386;2022-11-06T00:00:16;6.40;82.80
44851;DHT22;30583;48.714;9.386;2022-11-06T00:02:42;6.50;83.60
44851;DHT22;30583;48.714;9.386;2022-11-06T00:05:08;6.20;84.00
44851;DHT22;30583;48.714;9.386;2022-11-06T00:07:53;6.40;83.60
44851;DHT22;30583;48.714;9.386;2022-11-06T00:10:19;6.40;83.30
44851;DHT22;30583;48.714;9.386;2022-11-06T00:12:45;6.40;82.70
44851;DHT22;30583;48.714;9.386;2022-11-06T00:15:11;6.40;82.70
44851;DHT22;30583;48.714;9.386;2022-11-06T00:17:37;6.20;82.80
44851;DHT22;30583;48.714;9.386;2022-11-06T00:20:03;5.90;83.20
44851;DHT22;30583;48.714;9.386;2022-11-06T00:22:34;6.00;82.90
44851;DHT22;30583;48.714;9.386;2022-11-06T00:25:00;6.00;81.70
44851;DHT22;30583;48.714;9.386;2022-11-06T00:27:26;5.60;83.30
44851;DHT22;30583;48.714;9.386;2022-11-06T00:29:52;5.70;83.60
44851;DHT22;30583;48.714;9.386;2022-11-06T00:32:18;6.20;82.80
44851;DHT22;30583;48.714;9.386;2022-11-06T00:34:43;6.10;82.40
44851;DHT22;30583;48.714;9.386;2022-11-06T00:37:09;6.10;82.50
44851;DHT22;30583;48.714;9.386;2022-11-06T00:39:34;6.20;82.50
44851;DHT22;30583;48.714;9.386;2022-11-06T00:42:00;6.00;82.90
44851;DHT22;30583;48.714;9.386;2022-11-06T00:44:25;6.20;83.00
44851;DHT22;30583;48.714;9.386;2022-11-06T00:46:51;6.10;83.50
44851;DHT22;30583;48.714;9.386;2022-11-06T00:49:17;6.00;83.20
44851;DHT22;30583;48.714;9.386;2022-11-06T00:51:42;6.10;83.60
44851;DHT22;30583;48.714;9.386;2022-11-06T00:54:12;5.90;84.00
44851;DHT22;30583;48.714;9.386;2022-11-06T00:56:38;6.10;83.60
44851;DHT22;30583;48.714;9.386;2022-11-06T00:59:05;6.00;84.10
44851;DHT22;30583;48.714;9.386;2022-11-06T01:01:36;6.10;83.90
44851;DHT22;30583;48.714;9.386;2022-11-06T01:04:03;6.10;83.60
44851;DHT22;30583;48.714;9.386;2022-11-06T01:06:32;6.00;83.70
44851;DHT22;30583;48.714;9.386;2022-11-06T01:08:58;6.20;83.90
44851;DHT22;30583;48.714;9.386;2022-11-06T01:11:27;5.90;84.20
44851;DHT22;30583;48.714;9.386;2022-11-06T01:13:55;6.00;84.60
44851;DHT22;30583;48.714;9.386;2022-11-06T01:16:22;6.10;83.80
44851;DHT22;30583;48.714;9.386;2022-11-06T01:18:48;6.00;83.90
44851;DHT22;30583;48.714;9.386;2022-11-06T01:21:17;6.20;84.00
44851;DHT22;30583;48.714;9.386;2022-11-06T01:23:43;5.90;83.80
44851;DHT22;30583;48.714;9.386;2022-11-06T01:26:11;5.60;84.90
44851;DHT22;30583;48.714;9.386;2022-11-06T01:28:37;5.80;85.00
44851;DHT22;30583;48.714;9.386;2022-11-06T01:31:09;6.00;84.10
44851;DHT22;30583;48.714;9.386;2022-11-06T01:33:35;5.60;84.20
44851;DHT22;30583;48.714;9.386;2022-11-06T01:36:00;5.70;84.00
44851;DHT22;30583;48.714;9.386;2022-11-06T01:38:26;5.60;84.30
44851;DHT22;30583;48.714;9.386;2022-11-06T01:40:52;5.50;84.10
44851;DHT22;30583;48.714;9.386;2022-11-06T01:43:23;5.70;84.40
44851;DHT22;30583;48.714;9.386;2022-11-06T01:45:53;5.80;83.90
44851;DHT22;30583;48.714;9.386;2022-11-06T01:48:23;5.80;83.00
44851;DHT22;30583;48.714;9.386;2022-11-06T01:50:53;5.80;83.80
44851;DHT22;30583;48.714;9.386;2022-11-06T01:53:20;5.20;84.10
44851;DHT22;30583;48.714;9.386;2022-11-06T01:55:48;5.50;84.90
44851;DHT22;30583;48.714;9.386;2022-11-06T01:58:18;5.40;84.90
44851;DHT22;30583;48.714;9.386;2022-11-06T02:00:45;5.80;84.40
44851;DHT22;30583;48.714;9.386;2022-11-06T02:03:11;6.00;83.50
44851;DHT22;30583;48.714;9.386;2022-11-06T02:05:38;5.90;83.70
44851;DHT22;30583;48.714;9.386;2022-11-06T02:08:05;5.70;84.40
44851;DHT22;30583;48.714;9.386;2022-11-06T02:10:35;5.90;83.70
44851;DHT22;30583;48.714;9.386;2022-11-06T02:13:26;5.70;83.70
44851;DHT22;30583;48.714;9.386;2022-11-06T02:19:31;5.40;84.90
44851;DHT22;30583;48.714;9.386;2022-11-06T02:22:10;5.60;84.70
44851;DHT22;30583;48.714;9.386;2022-11-06T02:27:24;5.60;84.60
44851;DHT22;30583;48.714;9.386;2022-11-06T02:30:07;5.50;84.70
44851;DHT22;30583;48.714;9.386;2022-11-06T02:32:38;5.40;85.30
44851;DHT22;30583;48.714;9.386;2022-11-06T02:35:19;5.40;85.50
44851;DHT22;30583;48.714;9.386;2022-11-06T02:37:49;5.40;85.80
44851;DHT22;30583;48.714;9.386;2022-11-06T02:40:17;5.10;86.30
44851;DHT22;30583;48.714;9.386;2022-11-06T02:42:46;5.20;86.80
44851;DHT22;30583;48.714;9.386;2022-11-06T02:45:16;4.90;86.20
44851;DHT22;30583;48.714;9.386;2022-11-06T02:47:46;5.20;86.50
44851;DHT22;30583;48.714;9.386;2022-11-06T02:50:25;5.40;86.20
44851;DHT22;30583;48.714;9.386;2022-11-06T02:53:15;5.40;85.90
44851;DHT22;30583;48.714;9.386;2022-11-06T02:55:57;5.30;85.70
44851;DHT22;30583;48.714;9.386;2022-11-06T02:58:33;5.30;86.00
44851;DHT22;30583;48.714;9.386;2022-11-06T03:01:30;5.10;86.30
44851;DHT22;30583;48.714;9.386;2022-11-06T03:04:03;5.50;85.30
44851;DHT22;30583;48.714;9.386;2022-11-06T03:06:36;5.10;85.20
44851;DHT22;30583;48.714;9.386;2022-11-06T03:09:08;5.10;86.50
44851;DHT22;30583;48.714;9.386;2022-11-06T03:11:36;5.30;85.50
44851;DHT22;30583;48.714;9.386;2022-11-06T03:14:09;5.40;85.50
44851;DHT22;30583;48.714;9.386;2022-11-06T03:16:57;5.30;86.10
44851;DHT22;30583;48.714;9.386;2022-11-06T03:22:09;5.30;86.50
44851;DHT22;30583;48.714;9.386;2022-11-06T03:24:52;5.20;86.00
44851;DHT22;30583;48.714;9.386;2022-11-06T03:27:34;5.00;86.30
44851;DHT22;30583;48.714;9.386;2022-11-06T03:30:09;5.00;86.10
44851;DHT22;30583;48.714;9.386;2022-11-06T03:32:58;5.20;85.70
44851;DHT22;30583;48.714;9.386;2022-11-06T03:38:12;5.10;85.20
44851;DHT22;30583;48.714;9.386;2022-11-06T03:40:49;4.90;84.80
44851;DHT22;30583;48.714;9.386;2022-11-06T03:43:19;5.00;84.80
44851;DHT22;30583;48.714;9.386;2022-11-06T03:45:46;4.90;84.80
44851;DHT22;30583;48.714;9.386;2022-11-06T03:48:28;5.00;84.40
44851;DHT22;30583;48.714;9.386;2022-11-06T03:56:27;4.70;85.00
44851;DHT22;30583;48.714;9.386;2022-11-06T03:58:54;4.90;85.00
44851;DHT22;30583;48.714;9.386;2022-11-06T04:01:26;5.00;84.80
44851;DHT22;30583;48.714;9.386;2022-11-06T04:04:03;4.70;85.60
44851;DHT22;30583;48.714;9.386;2022-11-06T04:06:38;4.80;85.40
44851;DHT22;30583;48.714;9.386;2022-11-06T04:09:06;4.90;85.30
44851;DHT22;30583;48.714;9.386;2022-11-06T04:11:53;4.90;85.30
44851;DHT22;30583;48.714;9.386;2022-11-06T04:14:41;5.10;84.90
44851;DHT22;30583;48.714;9.386;2022-11-06T04:17:09;4.40;86.00
44851;DHT22;30583;48.714;9.386;2022-11-06T04:19:36;4.80;86.00
44851;DHT22;30583;48.714;9.386;2022-11-06T04:24:57;4.70;85.20
44851;DHT22;30583;48.714;9.386;2022-11-06T04:30:15;4.60;85.90
44851;DHT22;30583;48.714;9.386;2022-11-06T04:33:01;4.30;85.40
44851;DHT22;30583;48.714;9.386;2022-11-06T04:38:38;4.90;85.40
44851;DHT22;30583;48.714;9.386;2022-11-06T04:41:25;4.60;86.00
44851;DHT22;30583;48.714;9.386;2022-11-06T04:44:06;4.30;86.30
44851;DHT22;30583;48.714;9.386;2022-11-06T04:46:39;4.20;87.30
44851;DHT22;30583;48.714;9.386;2022-11-06T04:49:06;4.60;87.50
44851;DHT22;30583;48.714;9.386;2022-11-06T04:51:34;4.90;85.90
44851;DHT22;30583;48.714;9.386;2022-11-06T04:54:02;5.10;85.10
44851;DHT22;30583;48.714;9.386;2022-11-06T04:56:31;4.90;85.40
44851;DHT22;30583;48.714;9.386;2022-11-06T04:58:57;5.10;85.10
44851;DHT22;30583;48.714;9.386;2022-11-06T05:01:23;5.00;85.30
44851;DHT22;30583;48.714;9.386;2022-11-06T05:03:48;5.10;85.10
44851;DHT22;30583;48.714;9.386;2022-11-06T05:06:14;5.10;85.10
44851;DHT22;30583;48.714;9.386;2022-11-06T05:08:40;4.90;85.10
44851;DHT22;30583;48.714;9.386;2022-11-06T05:11:06;4.90;85.10
44851;DHT22;30583;48.714;9.386;2022-11-06T05:13:31;4.80;85.50
44851;DHT22;30583;48.714;9.386;2022-11-06T05:15:58;4.80;86.70
44851;DHT22;30583;48.714;9.386;2022-11-06T05:18:25;5.30;85.60
44851;DHT22;30583;48.714;9.386;2022-11-06T05:20:51;5.20;85.00
44851;DHT22;30583;48.714;9.386;2022-11-06T05:23:40;5.30;85.30
44851;DHT22;30583;48.714;9.386;2022-11-06T05:26:06;5.50;84.50
44851;DHT22;30583;48.714;9.386;2022-11-06T05:28:33;5.20;83.90
44851;DHT22;30583;48.714;9.386;2022-11-06T05:30:58;4.90;84.80
44851;DHT22;30583;48.714;9.386;2022-11-06T05:33:24;4.70;86.00
44851;DHT22;30583;48.714;9.386;2022-11-06T05:35:50;4.80;85.40
44851;DHT22;30583;48.714;9.386;2022-11-06T05:38:16;5.00;84.90
44851;DHT22;30583;48.714;9.386;2022-11-06T05:40:42;4.70;85.80
44851;DHT22;30583;48.714;9.386;2022-11-06T05:43:07;4.60;85.60
44851;DHT22;30583;48.714;9.386;2022-11-06T05:45:33;4.40;86.30
44851;DHT22;30583;48.714;9.386;2022-11-06T05:47:58;4.90;85.70
44851;DHT22;30583;48.714;9.386;2022-11-06T05:50:24;5.10;84.90
44851;DHT22;30583;48.714;9.386;2022-11-06T05:52:50;5.10;84.30
44851;DHT22;30583;48.714;9.386;2022-11-06T05:55:15;5.20;84.30
44851;DHT22;30583;48.714;9.386;2022-11-06T05:57:41;5.00;83.90
44851;DHT22;30583;48.714;9.386;2022-11-06T06:00:08;4.70;84.70
44851;DHT22;30583;48.714;9.386;2022-11-06T06:02:35;4.90;84.80
44851;DHT22;30583;48.714;9.386;2022-11-06T06:05:02;5.30;84.50
44851;DHT22;30583;48.714;9.386;2022-11-06T06:07:27;5.30;83.50
44851;DHT22;30583;48.714;9.386;2022-11-06T06:09:53;4.90;84.00
44851;DHT22;30583;48.714;9.386;2022-11-06T06:12:19;4.80;83.80
44851;DHT22;30583;48.714;9.386;2022-11-06T06:14:44;4.70;84.60
44851;DHT22;30583;48.714;9.386;2022-11-06T06:17:10;4.60;85.00
44851;DHT22;30583;48.714;9.386;2022-11-06T06:19:36;5.00;84.80
44851;DHT22;30583;48.714;9.386;2022-11-06T06:22:01;4.80;84.70
44851;DHT22;30583;48.714;9.386;2022-11-06T06:24:27;4.90;84.20
44851;DHT22;30583;48.714;9.386;2022-11-06T06:26:52;4.90;84.30
44851;DHT22;30583;48.714;9.386;2022-11-06T06:29:18;4.60;84.70
44851;DHT22;30583;48.714;9.386;2022-11-06T06:31:43;4.80;84.40
44851;DHT22;30583;48.714;9.386;2022-11-06T06:34:09;4.70;84.60
44851;DHT22;30583;48.714;9.386;2022-11-06T06:36:34;4.40;85.30
44851;DHT22;30583;48.714;9.386;2022-11-06T06:39:00;4.60;85.50
44851;DHT22;30583;48.714;9.386;2022-11-06T06:41:25;4.70;85.20
44851;DHT22;30583;48.714;9.386;2022-11-06T06:43:51;4.70;84.70
44851;DHT22;30583;48.714;9.386;2022-11-06T06:46:17;4.50;85.30
44851;DHT22;30583;48.714;9.386;2022-11-06T06:48:42;4.70;87.20
44851;DHT22;30583;48.714;9.386;2022-11-06T06:51:08;4.60;85.10
44851;DHT22;30583;48.714;9.386;2022-11-06T06:53:34;5.00;85.30
44851;DHT22;30583;48.714;9.386;2022-11-06T06:56:01;4.60;84.80
44851;DHT22;30583;48.714;9.386;2022-11-06T06:58:27;4.10;85.40
44851;DHT22;30583;48.714;9.386;2022-11-06T07:00:53;4.40;85.70
44851;DHT22;30583;48.714;9.386;2022-11-06T07:03:19;4.80;84.90
44851;DHT22;30583;48.714;9.386;2022-11-06T07:05:45;5.30;83.90
44851;DHT22;30583;48.714;9.386;2022-11-06T07:08:11;5.10;83.70
44851;DHT22;30583;48.714;9.386;2022-11-06T07:10:37;4.70;83.90
44851;DHT22;30583;48.714;9.386;2022-11-06T07:13:04;4.90;84.30
44851;DHT22;30583;48.714;9.386;2022-11-06T07:15:30;5.00;84.40
44851;DHT22;30583;48.714;9.386;2022-11-06T07:18:01;5.30;83.30
44851;DHT22;30583;48.714;9.386;2022-11-06T07:20:27;5.20;83.90
44851;DHT22;30583;48.714;9.386;2022-11-06T07:22:53;4.70;84.40
44851;DHT22;30583;48.714;9.386;2022-11-06T07:25:18;4.60;85.50
44851;DHT22;30583;48.714;9.386;2022-11-06T07:27:44;4.70;86.00
44851;DHT22;30583;48.714;9.386;2022-11-06T07:30:10;4.80;85.40
44851;DHT22;30583;48.714;9.386;2022-11-06T07:32:35;4.20;85.50
44851;DHT22;30583;48.714;9.386;2022-11-06T07:35:01;4.10;86.40
44851;DHT22;30583;48.714;9.386;2022-11-06T07:37:26;4.30;85.80
44851;DHT22;30583;48.714;9.386;2022-11-06T07:39:52;4.50;85.90
44851;DHT22;30583;48.714;9.386;2022-11-06T07:42:18;4.50;84.60
44851;DHT22;30583;48.714;9.386;2022-11-06T07:44:43;3.90;86.40
44851;DHT22;30583;48.714;9.386;2022-11-06T07:47:09;4.40;86.20
44851;DHT22;30583;48.714;9.386;2022-11-06T07:49:34;4.30;85.70
44851;DHT22;30583;48.714;9.386;2022-11-06T07:52:00;4.40;85.80
44851;DHT22;30583;48.714;9.386;2022-11-06T07:54:25;4.50;85.50
44851;DHT22;30583;48.714;9.386;2022-11-06T07:56:51;4.30;86.30
44851;DHT22;30583;48.714;9.386;2022-11-06T07:59:17;4.60;85.70
44851;DHT22;30583;48.714;9.386;2022-11-06T08:01:42;4.70;85.70
44851;DHT22;30583;48.714;9.386;2022-11-06T08:04:08;4.20;85.80
44851;DHT22;30583;48.714;9.386;2022-11-06T08:06:34;4.40;85.90
44851;DHT22;30583;48.714;9.386;2022-11-06T08:08:59;4.40;85.20
44851;DHT22;30583;48.714;9.386;2022-11-06T08:11:25;4.60;85.50
44851;DHT22;30583;48.714;9.386;2022-11-06T08:13:51;4.80;84.50
44851;DHT22;30583;48.714;9.386;2022-11-06T08:16:17;5.20;84.10
44851;DHT22;30583;48.714;9.386;2022-11-06T08:18:42;5.70;83.20
44851;DHT22;30583;48.714;9.386;2022-11-06T08:21:09;5.60;82.40
44851;DHT22;30583;48.714;9.386;2022-11-06T08:23:34;5.80;81.60
44851;DHT22;30583;48.714;9.386;2022-11-06T08:26:03;5.90;81.60
44851;DHT22;30583;48.714;9.386;2022-11-06T08:28:29;5.90;81.20
44851;DHT22;30583;48.714;9.386;2022-11-06T08:30:55;5.70;81.10
44851;DHT22;30583;48.714;9.386;2022-11-06T08:33:21;5.80;81.40
44851;DHT22;30583;48.714;9.386;2022-11-06T08:35:47;5.80;80.90
44851;DHT22;30583;48.714;9.386;2022-11-06T08:38:14;6.00;80.40
44851;DHT22;30583;48.714;9.386;2022-11-06T08:40:39;6.30;80.30
44851;DHT22;30583;48.714;9.386;2022-11-06T08:43:07;6.30;79.80
44851;DHT22;30583;48.714;9.386;2022-11-06T08:45:41;6.10;79.80
44851;DHT22;30583;48.714;9.386;2022-11-06T08:48:08;6.10;80.40
44851;DHT22;30583;48.714;9.386;2022-11-06T08:50:36;6.10;80.50
44851;DHT22;30583;48.714;9.386;2022-11-06T08:53:02;6.10;80.40
44851;DHT22;30583;48.714;9.386;2022-11-06T08:55:33;6.50;80.10
44851;DHT22;30583;48.714;9.386;2022-11-06T08:57:59;6.60;79.70
44851;DHT22;30583;48.714;9.386;2022-11-06T09:00:25;6.40;79.40
44851;DHT22;30583;48.714;9.386;2022-11-06T09:02:55;6.60;79.60
44851;DHT22;30583;48.714;9.386;2022-11-06T09:05:21;6.60;80.30
44851;DHT22;30583;48.714;9.386;2022-11-06T09:07:47;6.70;80.00
44851;DHT22;30583;48.714;9.386;2022-11-06T09:10:12;6.60;80.60
44851;DHT22;30583;48.714;9.386;2022-11-06T09:12:38;7.10;79.60
44851;DHT22;30583;48.714;9.386;2022-11-06T09:15:04;7.10;79.40
44851;DHT22;30583;48.714;9.386;2022-11-06T09:17:29;7.20;79.20
44851;DHT22;30583;48.714;9.386;2022-11-06T09:19:55;7.60;78.40
44851;DHT22;30583;48.714;9.386;2022-11-06T09:22:20;7.80;77.10
44851;DHT22;30583;48.714;9.386;2022-11-06T09:24:46;8.00;76.90
44851;DHT22;30583;48.714;9.386;2022-11-06T09:27:11;11.50;90.00
44851;DHT22;30583;48.714;9.386;2022-11-06T09:29:37;16.10;70.20
44851;DHT22;30583;48.714;9.386;2022-11-06T09:32:08;16.90;60.00
44851;DHT22;30583;48.714;9.386;2022-11-06T09:34:34;16.10;54.20
44851;DHT22;30583;48.714;9.386;2022-11-06T09:37:01;11.40;64.30
44851;DHT22;30583;48.714;9.386;2022-11-06T09:39:27;9.90;71.60
44851;DHT22;30583;48.714;9.386;2022-11-06T09:47:22;10.60;69.60
44851;DHT22;30583;48.714;9.386;2022-11-06T09:49:52;10.70;69.80
44851;DHT22;30583;48.714;9.386;2022-11-06T09:52:29;10.20;70.90
44851;DHT22;30583;48.714;9.386;2022-11-06T09:55:01;10.20;71.90
44851;DHT22;30583;48.714;9.386;2022-11-06T09:57:34;10.90;70.70
44851;DHT22;30583;48.714;9.386;2022-11-06T10:00:03;11.10;69.00
44851;DHT22;30583;48.714;9.386;2022-11-06T10:02:37;11.00;68.60
44851;DHT22;30583;48.714;9.386;2022-11-06T10:07:46;11.40;67.60
44851;DHT22;30583;48.714;9.386;2022-11-06T10:10:17;11.00;68.30
44851;DHT22;30583;48.714;9.386;2022-11-06T10:15:25;11.60;67.30
44851;DHT22;30583;48.714;9.386;2022-11-06T10:20:50;12.20;66.40
44851;DHT22;30583;48.714;9.386;2022-11-06T10:26:07;13.60;63.80
44851;DHT22;30583;48.714;9.386;2022-11-06T10:29:00;12.40;65.40
44851;DHT22;30583;48.714;9.386;2022-11-06T10:31:55;11.90;66.30
44851;DHT22;30583;48.714;9.386;2022-11-06T10:34:34;12.30;65.90
44851;DHT22;30583;48.714;9.386;2022-11-06T10:37:15;12.40;65.50
44851;DHT22;30583;48.714;9.386;2022-11-06T10:39:41;12.40;66.30
44851;DHT22;30583;48.714;9.386;2022-11-06T10:42:18;12.50;65.50
44851;DHT22;30583;48.714;9.386;2022-11-06T10:45:03;11.80;68.20
44851;DHT22;30583;48.714;9.386;2022-11-06T10:47:37;11.20;70.40
44851;DHT22;30583;48.714;9.386;2022-11-06T10:50:05;12.10;69.10
44851;DHT22;30583;48.714;9.386;2022-11-06T10:58:04;11.70;69.30
44851;DHT22;30583;48.714;9.386;2022-11-06T11:00:30;12.30;67.70
44851;DHT22;30583;48.714;9.386;2022-11-06T11:03:06;12.00;67.60
44851;DHT22;30583;48.714;9.386;2022-11-06T11:05:41;11.80;68.70
44851;DHT22;30583;48.714;9.386;2022-11-06T11:08:30;11.90;68.20
44851;DHT22;30583;48.714;9.386;2022-11-06T11:11:05;12.10;68.10
44851;DHT22;30583;48.714;9.386;2022-11-06T11:16:23;12.10;69.40
44851;DHT22;30583;48.714;9.386;2022-11-06T11:18:50;12.40;69.70
44851;DHT22;30583;48.714;9.386;2022-11-06T11:21:23;12.80;68.80
44851;DHT22;30583;48.714;9.386;2022-11-06T11:24:06;12.80;67.80
44851;DHT22;30583;48.714;9.386;2022-11-06T11:26:35;12.80;68.30
44851;DHT22;30583;48.714;9.386;2022-11-06T11:29:21;12.60;67.30
44851;DHT22;30583;48.714;9.386;2022-11-06T11:31:51;12.60;68.90
44851;DHT22;30583;48.714;9.386;2022-11-06T11:34:29;12.50;69.70
44851;DHT22;30583;48.714;9.386;2022-11-06T11:37:03;12.70;68.50
44851;DHT22;30583;48.714;9.386;2022-11-06T11:39:35;13.20;67.90
44851;DHT22;30583;48.714;9.386;2022-11-06T11:44:45;14.00;65.00
44851;DHT22;30583;48.714;9.386;2022-11-06T11:47:22;13.90;63.30
44851;DHT22;30583;48.714;9.386;2022-11-06T11:49:47;13.80;62.70
44851;DHT22;30583;48.714;9.386;2022-11-06T11:52:18;13.60;62.40
44851;DHT22;30583;48.714;9.386;2022-11-06T11:54:49;13.10;62.70
44851;DHT22;30583;48.714;9.386;2022-11-06T11:57:24;12.70;62.20
44851;DHT22;30583;48.714;9.386;2022-11-06T12:00:00;12.80;63.80
44851;DHT22;30583;48.714;9.386;2022-11-06T12:02:45;13.00;66.00
44851;DHT22;30583;48.714;9.386;2022-11-06T12:05:12;13.20;61.80
44851;DHT22;30583;48.714;9.386;2022-11-06T12:07:42;13.50;58.70
44851;DHT22;30583;48.714;9.386;2022-11-06T12:10:29;13.20;61.50
44851;DHT22;30583;48.714;9.386;2022-11-06T12:12:56;13.40;60.20
44851;DHT22;30583;48.714;9.386;2022-11-06T12:15:30;13.80;60.20
44851;DHT22;30583;48.714;9.386;2022-11-06T12:18:04;14.20;59.00
44851;DHT22;30583;48.714;9.386;2022-11-06T12:23:28;12.70;61.00
44851;DHT22;30583;48.714;9.386;2022-11-06T12:26:23;12.40;62.30
44851;DHT22;30583;48.714;9.386;2022-11-06T12:28:55;13.30;60.20
44851;DHT22;30583;48.714;9.386;2022-11-06T12:31:37;13.50;59.90
44851;DHT22;30583;48.714;9.386;2022-11-06T12:34:09;13.00;59.90
44851;DHT22;30583;48.714;9.386;2022-11-06T12:36:44;13.10;60.40
44851;DHT22;30583;48.714;9.386;2022-11-06T12:39:21;13.20;59.80
44851;DHT22;30583;48.714;9.386;2022-11-06T12:41:49;13.00;60.00
44851;DHT22;30583;48.714;9.386;2022-11-06T12:44:15;13.00;60.40
44851;DHT22;30583;48.714;9.386;2022-11-06T12:52:26;12.60;61.50
44851;DHT22;30583;48.714;9.386;2022-11-06T12:58:29;12.30;61.70
44851;DHT22;30583;48.714;9.386;2022-11-06T13:01:19;12.30;61.80
44851;DHT22;30583;48.714;9.386;2022-11-06T13:09:16;12.00;62.70
44851;DHT22;30583;48.714;9.386;2022-11-06T13:17:30;12.40;62.00
44851;DHT22;30583;48.714;9.386;2022-11-06T13:20:09;12.30;61.50
44851;DHT22;30583;48.714;9.386;2022-11-06T13:22:43;12.30;61.90
44851;DHT22;30583;48.714;9.386;2022-11-06T13:25:16;12.20;62.10
44851;DHT22;30583;48.714;9.386;2022-11-06T13:27:56;12.00;63.10
44851;DHT22;30583;48.714;9.386;2022-11-06T13:30:23;12.20;63.40
44851;DHT22;30583;48.714;9.386;2022-11-06T13:35:27;12.00;62.70
44851;DHT22;30583;48.714;9.386;2022-11-06T13:37:53;11.90;62.90
44851;DHT22;30583;48.714;9.386;2022-11-06T13:40:27;11.60;63.40
44851;DHT22;30583;48.714;9.386;2022-11-06T13:43:11;11.70;63.10
44851;DHT22;30583;48.714;9.386;2022-11-06T13:46:01;11.60;63.70
44851;DHT22;30583;48.714;9.386;2022-11-06T13:51:52;11.90;62.50
44851;DHT22;30583;48.714;9.386;2022-11-06T14:05:56;11.70;64.70
44851;DHT22;30583;48.714;9.386;2022-11-06T14:11:04;11.20;65.20
44851;DHT22;30583;48.714;9.386;2022-11-06T14:13:32;10.90;65.60
44851;DHT22;30583;48.714;9.386;2022-11-06T14:16:05;10.70;66.30
44851;DHT22;30583;48.714;9.386;2022-11-06T14:18:31;10.70;66.60
44851;DHT22;30583;48.714;9.386;2022-11-06T14:26:49;10.80;67.00
44851;DHT22;30583;48.714;9.386;2022-11-06T14:31:59;10.40;67.80
44851;DHT22;30583;48.714;9.386;2022-11-06T14:34:30;10.40;68.60
44851;DHT22;30583;48.714;9.386;2022-11-06T14:36:56;10.20;68.60
44851;DHT22;30583;48.714;9.386;2022-11-06T14:42:34;10.80;68.30
44851;DHT22;30583;48.714;9.386;2022-11-06T14:50:31;10.20;70.60
44851;DHT22;30583;48.714;9.386;2022-11-06T14:53:01;10.00;69.70
44851;DHT22;30583;48.714;9.386;2022-11-06T14:55:33;9.80;70.50
44851;DHT22;30583;48.714;9.386;2022-11-06T14:58:22;10.00;71.30
44851;DHT22;30583;48.714;9.386;2022-11-06T15:01:01;9.70;71.10
44851;DHT22;30583;48.714;9.386;2022-11-06T15:19:06;9.40;72.40
44851;DHT22;30583;48.714;9.386;2022-11-06T15:21:49;9.30;72.50
44851;DHT22;30583;48.714;9.386;2022-11-06T15:24:25;9.40;72.60
44851;DHT22;30583;48.714;9.386;2022-11-06T15:26:56;9.40;72.50
44851;DHT22;30583;48.714;9.386;2022-11-06T15:29:31;9.40;72.70
44851;DHT22;30583;48.714;9.386;2022-11-06T15:32:05;9.30;73.00
44851;DHT22;30583;48.714;9.386;2022-11-06T15:34:43;9.60;72.60
44851;DHT22;30583;48.714;9.386;2022-11-06T15:37:13;9.40;72.70
44851;DHT22;30583;48.714;9.386;2022-11-06T15:39:50;9.40;73.00
44851;DHT22;30583;48.714;9.386;2022-11-06T15:42:16;9.20;73.50
44851;DHT22;30583;48.714;9.386;2022-11-06T15:44:44;9.30;73.50
44851;DHT22;30583;48.714;9.386;2022-11-06T15:47:25;9.40;73.20
44851;DHT22;30583;48.714;9.386;2022-11-06T15:50:17;9.40;73.20
44851;DHT22;30583;48.714;9.386;2022-11-06T15:52:44;9.30;74.00
44851;DHT22;30583;48.714;9.386;2022-11-06T15:55:33;9.50;72.90
44851;DHT22;30583;48.714;9.386;2022-11-06T15:58:52;9.40;73.10
44851;DHT22;30583;48.714;9.386;2022-11-06T16:00:53;9.70;72.50
44851;DHT22;30583;48.714;9.386;2022-11-06T16:03:21;9.60;72.20
44851;DHT22;30583;48.714;9.386;2022-11-06T16:05:47;9.50;72.30
44851;DHT22;30583;48.714;9.386;2022-11-06T16:08:14;9.30;73.30
44851;DHT22;30583;48.714;9.386;2022-11-06T16:10:42;9.30;73.30
44851;DHT22;30583;48.714;9.386;2022-11-06T16:13:13;9.60;72.10
44851;DHT22;30583;48.714;9.386;2022-11-06T16:18:21;9.40;72.00
44851;DHT22;30583;48.714;9.386;2022-11-06T16:23:32;9.40;71.40
44851;DHT22;30583;48.714;9.386;2022-11-06T16:26:23;9.30;71.50
44851;DHT22;30583;48.714;9.386;2022-11-06T16:28:50;9.20;71.90
44851;DHT22;30583;48.714;9.386;2022-11-06T16:31:22;9.20;72.00
44851;DHT22;30583;48.714;9.386;2022-11-06T16:36:20;9.10;72.50
44851;DHT22;30583;48.714;9.386;2022-11-06T16:38:46;9.10;72.50
44851;DHT22;30583;48.714;9.386;2022-11-06T16:41:16;9.00;72.80
44851;DHT22;30583;48.714;9.386;2022-11-06T16:49:42;9.20;72.70
44851;DHT22;30583;48.714;9.386;2022-11-06T16:54:51;9.60;72.10
44851;DHT22;30583;48.714;9.386;2022-11-06T16:57:19;9.70;72.00
44851;DHT22;30583;48.714;9.386;2022-11-06T17:00:05;9.70;71.80
44851;DHT22;30583;48.714;9.386;2022-11-06T17:02:35;9.60;72.20
44851;DHT22;30583;48.714;9.386;2022-11-06T17:05:17;9.60;72.30
44851;DHT22;30583;48.714;9.386;2022-11-06T17:07:44;9.50;72.40
44851;DHT22;30583;48.714;9.386;2022-11-06T17:10:41;9.60;72.60
44851;DHT22;30583;48.714;9.386;2022-11-06T17:16:03;9.60;72.50
44851;DHT22;30583;48.714;9.386;2022-11-06T17:18:34;9.30;72.90
44851;DHT22;30583;48.714;9.386;2022-11-06T17:21:05;9.40;73.10
44851;DHT22;30583;48.714;9.386;2022-11-06T17:23:32;9.60;72.50
44851;DHT22;30583;48.714;9.386;2022-11-06T17:26:06;9.60;72.70
44851;DHT22;30583;48.714;9.386;2022-11-06T17:28:34;9.60;72.50
44851;DHT22;30583;48.714;9.386;2022-11-06T17:31:00;9.60;71.90
44851;DHT22;30583;48.714;9.386;2022-11-06T17:33:25;9.50;72.50
44851;DHT22;30583;48.714;9.386;2022-11-06T17:35:51;9.60;72.10
44851;DHT22;30583;48.714;9.386;2022-11-06T17:38:17;9.60;72.10
44851;DHT22;30583;48.714;9.386;2022-11-06T17:40:43;9.20;72.60
44851;DHT22;30583;48.714;9.386;2022-11-06T17:43:10;9.30;73.10
44851;DHT22;30583;48.714;9.386;2022-11-06T17:45:37;9.50;72.70
44851;DHT22;30583;48.714;9.386;2022-11-06T17:48:04;9.70;71.80
44851;DHT22;30583;48.714;9.386;2022-11-06T17:50:29;9.70;71.80
44851;DHT22;30583;48.714;9.386;2022-11-06T17:53:15;9.70;71.70
44851;DHT22;30583;48.714;9.386;2022-11-06T17:55:40;9.60;72.40
44851;DHT22;30583;48.714;9.386;2022-11-06T17:58:06;9.70;72.20
44851;DHT22;30583;48.714;9.386;2022-11-06T18:00:32;9.30;73.50
44851;DHT22;30583;48.714;9.386;2022-11-06T18:02:57;9.10;74.30
44851;DHT22;30583;48.714;9.386;2022-11-06T18:05:23;9.30;74.00
44851;DHT22;30583;48.714;9.386;2022-11-06T18:07:48;9.40;73.90
44851;DHT22;30583;48.714;9.386;2022-11-06T18:10:14;9.40;74.40
44851;DHT22;30583;48.714;9.386;2022-11-06T18:12:39;9.40;73.90
44851;DHT22;30583;48.714;9.386;2022-11-06T18:15:06;9.30;74.60
44851;DHT22;30583;48.714;9.386;2022-11-06T18:17:31;9.30;74.80
44851;DHT22;30583;48.714;9.386;2022-11-06T18:19:57;9.40;74.50
44851;DHT22;30583;48.714;9.386;2022-11-06T18:22:22;9.50;74.30
44851;DHT22;30583;48.714;9.386;2022-11-06T18:24:48;9.50;74.20
44851;DHT22;30583;48.714;9.386;2022-11-06T18:27:14;9.60;76.30
44851;DHT22;30583;48.714;9.386;2022-11-06T18:29:39;9.60;73.80